createdAt,value
2022-09-11T00:03:38.702Z,12.42
2022-09-11T00:08:41.441Z,12.42
2022-09-11T00:13:44.253Z,12.39
2022-09-11T00:18:47.180Z,12.38
2022-09-11T00:23:50.375Z,12.45
2022-09-11T00:28:53.169Z,12.39
2022-09-11T00:33:56.109Z,12.37
2022-09-11T00:38:59.047Z,12.36
2022-09-11T00:44:02.382Z,12.40
2022-09-11T00:49:05.098Z,12.48
2022-09-11T00:54:07.961Z,12.49
2022-09-11T00:59:11.126Z,12.52
2022-09-11T01:04:13.848Z,12.50
2022-09-11T01:09:16.519Z,12.51
2022-09-11T01:14:19.225Z,12.54
2022-09-11T01:19:21.937Z,12.53
2022-09-11T01:24:24.592Z,12.52
2022-09-11T01:29:27.334Z,12.57
2022-09-11T01:34:30.035Z,12.57
2022-09-11T01:39:32.780Z,12.53
2022-09-11T01:44:35.446Z,12.50
2022-09-11T01:49:38.239Z,12.50
2022-09-11T01:54:41.992Z,12.53
2022-09-11T01:59:44.689Z,12.61
2022-09-11T02:04:47.355Z,12.62
2022-09-11T02:09:50.421Z,12.55
2022-09-11T02:14:53.349Z,12.52
2022-09-11T02:19:56.700Z,12.47
2022-09-11T02:24:59.421Z,12.49
2022-09-11T02:30:02.382Z,12.49
2022-09-11T02:35:05.083Z,12.42
2022-09-11T02:40:09.282Z,12.38
2022-09-11T02:45:12.212Z,12.37
2022-09-11T02:50:15.454Z,12.35
2022-09-11T02:55:19.173Z,12.38
2022-09-11T03:00:21.912Z,12.44
2022-09-11T03:05:26.137Z,12.38
2022-09-11T03:10:29.005Z,12.39
2022-09-11T03:15:32.052Z,12.26
2022-09-11T03:20:34.947Z,12.22
2022-09-11T03:25:37.818Z,12.19
2022-09-11T03:30:41.529Z,12.18
2022-09-11T03:35:44.776Z,12.14
2022-09-11T03:40:47.591Z,12.16
2022-09-11T03:45:51.150Z,12.20
2022-09-11T03:50:54.679Z,12.21
2022-09-11T03:55:58.038Z,12.21
2022-09-11T04:01:00.987Z,12.26
2022-09-11T04:06:06.797Z,12.26
2022-09-11T04:11:10.074Z,12.25
2022-09-11T04:16:12.881Z,12.27
2022-09-11T04:21:15.569Z,12.29
2022-09-11T04:26:19.162Z,12.24
2022-09-11T04:31:21.931Z,12.23
2022-09-11T04:36:27.016Z,12.21
2022-09-11T04:41:29.808Z,12.22
2022-09-11T04:46:32.544Z,12.26
2022-09-11T04:51:35.209Z,12.22
2022-09-11T04:56:38.870Z,12.21
2022-09-11T05:01:41.557Z,12.25
2022-09-11T05:06:48.292Z,12.29
2022-09-11T05:11:51.770Z,12.34
2022-09-11T05:16:55.098Z,12.40
2022-09-11T05:21:57.833Z,12.44
2022-09-11T05:27:01.392Z,12.49
2022-09-11T05:32:05.998Z,12.50
2022-09-11T05:37:08.794Z,12.52
2022-09-11T05:42:11.905Z,12.55
2022-09-11T05:47:17.355Z,12.67
2022-09-11T05:52:20.095Z,12.74
2022-09-11T05:57:22.758Z,12.80
2022-09-11T06:02:25.479Z,12.92
2022-09-11T06:07:28.143Z,12.97
2022-09-11T06:12:31.031Z,13.04
2022-09-11T06:17:34.202Z,13.17
2022-09-11T06:22:37.679Z,13.23
2022-09-11T06:27:40.864Z,13.27
2022-09-11T06:32:43.562Z,13.45
2022-09-11T06:37:46.252Z,13.56
2022-09-11T06:42:49.282Z,13.62
2022-09-11T06:47:52.177Z,13.62
2022-09-11T06:52:54.942Z,13.68
2022-09-11T06:57:57.730Z,13.68
2022-09-11T07:03:02.276Z,13.68
2022-09-11T07:08:05.529Z,13.67
2022-09-11T07:13:08.306Z,13.72
2022-09-11T07:18:12.318Z,14.28
2022-09-11T07:23:15.111Z,14.18
2022-09-11T07:28:17.881Z,14.30
2022-09-11T07:33:20.677Z,14.26
2022-09-11T07:38:23.526Z,14.52
2022-09-11T07:43:26.739Z,14.75
2022-09-11T07:48:29.497Z,15.11
2022-09-11T07:53:32.588Z,15.46
2022-09-11T07:58:36.038Z,15.97
2022-09-11T08:03:38.821Z,15.97
2022-09-11T08:08:42.054Z,15.95
2022-09-11T08:13:44.903Z,16.10
2022-09-11T08:18:48.152Z,15.63
2022-09-11T08:23:51.010Z,15.92
2022-09-11T08:28:53.820Z,15.88
2022-09-11T08:33:56.575Z,15.49
2022-09-11T08:39:00.260Z,15.41
2022-09-11T08:44:03.015Z,15.48
2022-09-11T08:49:05.920Z,15.17
2022-09-11T08:54:08.810Z,15.23
2022-09-11T08:59:11.749Z,15.48
2022-09-11T09:04:14.648Z,15.53
2022-09-11T09:09:18.562Z,15.61
2022-09-11T09:14:21.557Z,15.27
2022-09-11T09:19:24.987Z,14.82
2022-09-11T09:24:27.741Z,14.64
2022-09-11T09:29:30.573Z,14.78
2022-09-11T09:34:34.876Z,14.84
2022-09-11T09:39:38.173Z,15.04
2022-09-11T09:44:41.293Z,15.14
2022-09-11T09:49:44.550Z,15.23
2022-09-11T09:54:47.574Z,15.14
2022-09-11T09:59:50.436Z,15.06
2022-09-11T10:04:54.424Z,14.90
2022-09-11T10:09:59.018Z,14.86
2022-09-11T10:15:01.883Z,14.90
2022-09-11T10:20:05.470Z,14.37
2022-09-11T10:25:08.309Z,14.46
2022-09-11T10:30:11.113Z,14.95
2022-09-11T10:35:14.243Z,15.44
2022-09-11T10:40:18.142Z,16.08
2022-09-11T10:45:21.916Z,16.69
2022-09-11T10:50:29.277Z,16.54
2022-09-11T10:55:32.225Z,16.87
2022-09-11T11:00:35.867Z,16.98
2022-09-11T11:05:38.666Z,17.17
2022-09-11T11:10:42.508Z,17.74
2022-09-11T11:15:45.359Z,17.63
2022-09-11T11:20:48.458Z,17.17
2022-09-11T11:25:51.162Z,17.26
2022-09-11T11:30:55.277Z,17.21
2022-09-11T11:35:58.054Z,15.82
2022-09-11T11:41:03.239Z,15.74
2022-09-11T11:46:06.105Z,16.04
2022-09-11T11:51:08.915Z,16.44
2022-09-11T11:56:14.264Z,17.11
2022-09-11T12:01:16.993Z,18.02
2022-09-11T12:06:20.623Z,18.22
2022-09-11T12:11:24.837Z,17.43
2022-09-11T12:16:29.254Z,16.96
2022-09-11T12:21:32.530Z,16.85
2022-09-11T12:26:35.249Z,17.27
2022-09-11T12:31:37.973Z,17.73
2022-09-11T12:36:40.866Z,17.68
2022-09-11T12:41:43.578Z,17.27
2022-09-11T12:46:47.979Z,16.74
2022-09-11T12:51:51.095Z,16.83
2022-09-11T12:57:01.714Z,16.83
2022-09-11T13:02:08.981Z,16.19
2022-09-11T13:07:11.992Z,15.44
2022-09-11T13:12:14.726Z,15.00
2022-09-11T13:17:18.439Z,15.33
2022-09-11T13:22:21.464Z,16.24
2022-09-11T13:27:26.721Z,17.31
2022-09-11T13:32:29.898Z,17.94
2022-09-11T13:37:32.973Z,18.27
2022-09-11T13:42:36.297Z,18.19
2022-09-11T13:47:39.422Z,17.64
2022-09-11T13:52:46.234Z,17.75
2022-09-11T13:57:49.293Z,17.85
2022-09-11T14:02:53.141Z,18.14
2022-09-11T14:07:56.747Z,17.94
2022-09-11T14:13:00.450Z,17.91
2022-09-11T14:18:03.452Z,18.07
2022-09-11T14:23:06.156Z,18.05
2022-09-11T14:28:09.454Z,18.07
2022-09-11T14:33:12.290Z,18.61
2022-09-11T14:38:15.542Z,18.28
2022-09-11T14:43:21.121Z,17.96
2022-09-11T14:48:24.101Z,17.94
2022-09-11T14:53:26.905Z,17.74
2022-09-11T14:58:29.648Z,17.66
2022-09-11T15:03:32.447Z,17.47
2022-09-11T15:08:35.610Z,17.22
2022-09-11T15:13:48.184Z,17.13
2022-09-11T15:19:01.096Z,17.16
2022-09-11T15:24:05.369Z,17.20
2022-09-11T15:29:10.227Z,17.15
2022-09-11T15:34:12.940Z,17.32
2022-09-11T15:39:15.877Z,17.42
2022-09-11T15:44:19.976Z,17.51
2022-09-11T15:49:22.950Z,17.32
2022-09-11T15:54:25.818Z,17.16
2022-09-11T15:59:28.688Z,17.15
2022-09-11T16:04:34.887Z,17.07
2022-09-11T16:09:38.686Z,17.13
2022-09-11T16:14:41.525Z,16.92
2022-09-11T16:19:44.980Z,16.78
2022-09-11T16:24:47.805Z,16.80
2022-09-11T16:30:20.601Z,16.65
2022-09-11T16:35:14.229Z,16.51
2022-09-11T16:40:17.148Z,16.47
2022-09-11T16:45:19.892Z,16.21
2022-09-11T16:50:24.333Z,16.01
2022-09-11T16:55:27.121Z,15.76
2022-09-11T17:00:29.916Z,15.69
2022-09-11T17:05:32.658Z,15.65
2022-09-11T17:10:35.436Z,15.64
2022-09-11T17:15:39.153Z,15.57
2022-09-11T17:20:42.499Z,15.40
2022-09-11T17:25:45.678Z,15.20
2022-09-11T17:30:48.373Z,15.04
2022-09-11T17:35:51.646Z,14.91
2022-09-11T17:40:57.035Z,14.83
2022-09-11T17:46:00.206Z,14.83
2022-09-11T17:51:03.399Z,14.79
2022-09-11T17:56:06.174Z,14.76
2022-09-11T18:01:10.197Z,14.79
2022-09-11T18:06:14.614Z,14.79
2022-09-11T18:11:17.366Z,14.78
2022-09-11T18:16:20.162Z,14.76
2022-09-11T18:21:23.047Z,14.69
2022-09-11T18:26:26.208Z,14.51
2022-09-11T18:31:36.891Z,14.28
2022-09-11T18:36:39.884Z,14.08
2022-09-11T18:41:44.345Z,13.88
2022-09-11T18:46:47.770Z,13.72
2022-09-11T18:51:50.602Z,13.61
2022-09-11T18:56:53.484Z,13.51
2022-09-11T19:01:56.252Z,13.37
2022-09-11T19:07:00.291Z,13.35
2022-09-11T19:12:03.912Z,13.42
2022-09-11T19:17:06.642Z,13.47
2022-09-11T19:22:09.366Z,13.33
2022-09-11T19:27:12.746Z,13.28
2022-09-11T19:32:16.329Z,13.19
2022-09-11T19:37:20.156Z,13.09
2022-09-11T19:42:24.030Z,13.06
2022-09-11T19:47:27.201Z,12.93
2022-09-11T19:52:33.061Z,12.80
2022-09-11T19:57:36.573Z,12.78
2022-09-11T20:02:39.382Z,12.71
2022-09-11T20:07:42.207Z,12.63
2022-09-11T20:12:45.033Z,12.64
2022-09-11T20:17:48.797Z,12.58
2022-09-11T20:22:51.546Z,12.51
2022-09-11T20:28:00.401Z,12.41
2022-09-11T20:33:06.088Z,12.35
2022-09-11T20:38:08.782Z,12.28
2022-09-11T20:43:11.991Z,12.23
2022-09-11T20:48:14.722Z,12.14
2022-09-11T20:53:22.840Z,12.09
2022-09-11T20:58:25.609Z,11.98
2022-09-11T21:03:28.394Z,11.93
2022-09-11T21:08:31.091Z,11.93
2022-09-11T21:13:33.795Z,11.88
2022-09-11T21:18:36.514Z,11.82
2022-09-11T21:23:39.186Z,11.78
2022-09-11T21:28:41.857Z,11.70
2022-09-11T21:33:44.814Z,11.63
2022-09-11T21:38:47.544Z,11.57
2022-09-11T21:43:50.415Z,11.55
2022-09-11T21:48:53.172Z,11.50
2022-09-11T21:53:57.710Z,11.43
2022-09-11T21:59:00.409Z,11.47
2022-09-11T22:04:03.085Z,11.46
2022-09-11T22:09:05.792Z,11.42
2022-09-11T22:14:20.243Z,11.35
2022-09-11T22:19:22.915Z,11.35
2022-09-11T22:24:25.593Z,11.37
2022-09-11T22:29:28.447Z,11.36
2022-09-11T22:34:31.268Z,11.27
2022-09-11T22:39:34.536Z,11.23
2022-09-11T22:44:37.378Z,11.16
2022-09-11T22:49:40.109Z,11.15
2022-09-11T22:54:44.129Z,11.07
2022-09-11T22:59:47.265Z,10.98
2022-09-11T23:05:03.822Z,10.87
2022-09-11T23:10:06.583Z,10.80
2022-09-11T23:15:09.345Z,10.73
2022-09-11T23:20:12.084Z,10.74
2022-09-11T23:25:15.161Z,10.69
2022-09-11T23:30:17.880Z,10.69
2022-09-11T23:35:20.560Z,10.79
2022-09-11T23:40:23.299Z,10.73
2022-09-11T23:45:26.041Z,10.64
2022-09-11T23:50:28.817Z,10.64
2022-09-11T23:55:31.909Z,10.63
